Impacts METAR Board
IDs:

KPDX - Portland Intl Arpt, OR, US

Updated at: 2100 UTC 20 Jun 2019
Potential Impact None Slight Moderate High
Time 20/09Z 20/10Z 20/11Z 20/12Z 20/13Z 20/14Z 20/15Z 20/16Z 20/17Z 20/18Z 20/19Z 20/20Z 20/21Z
Temp57 57 56 56 56 56 57 56 57 56 62 61 66
Dewpt43 43 43 43 43 44 44 49 47 50 52 50 49
Altim30.15 30.15 30.15 30.15 30.15 30.15 30.16 30.17 30.17 30.17 30.16 30.15 30.14
VIS10 10 10 10 10 10 10 10 10 5 10 10 10
CIG70 60 90 100 60 42 55 41 70 31 70 70 55
CoverOVCOVCBKNBKNBKNOVCOVCBKNBKNBKNBKNBKNBKN
FltCatVFRVFRVFRVFRVFRVFRVFRVFRVFRMVFRVFRVFRVFR
WX-------------RA-RA---RA---RA--
WDir2802802702802702702802602702803402700
WSpd9 9 8 7 9 9 8 9 5 5 5 5 3
WGst-- -- -- -- -- -- -- -- -- -- -- -- --
Raw hourly METARs
KPDX 200853Z 28009KT 10SM OVC070 14/06 A3015 RMK AO2 SLP208 T01390061 56013
KPDX 200953Z 28009KT 10SM SCT050 OVC060 14/06 A3015 RMK AO2 SLP207 T01390061
KPDX 201053Z 27008KT 10SM FEW035 SCT055 BKN090 13/06 A3015 RMK AO2 SLP208 T01330061
KPDX 201153Z 28007KT 10SM FEW035 SCT055 BKN100 13/06 A3015 RMK AO2 SLP208 T01330061 10150 20133 55000
KPDX 201253Z 27009KT 10SM FEW039 SCT050 BKN060 13/06 A3015 RMK AO2 SLP208 T01330061
KPDX 201353Z 27009KT 10SM FEW029 BKN042 OVC055 13/07 A3015 RMK AO2 SLP210 T01330067
KPDX 201453Z 28008KT 10SM -RA FEW030 OVC055 14/07 A3016 RMK AO2 RAB49 SLP211 P0000 60000 T01390067 53003
KPDX 201553Z 26009KT 10SM -RA FEW029 BKN041 BKN050 13/09 A3017 RMK AO2 SLP214 P0000 T01330094
KPDX 201653Z 27005KT 10SM FEW021 SCT040 BKN070 14/08 A3017 RMK AO2 RAE11 SLP214 P0000 T01390083
KPDX 201753Z 28005KT 5SM -RA FEW024 BKN031 BKN040 13/10 A3017 RMK AO2 RAB24 SLP214 P0004 60004 T01330100 10156 20122 51003
KPDX 201853Z 34005KT 10SM FEW025 SCT049 BKN070 17/11 A3016 RMK AO2 RAE06 SLP211 P0000 T01670111
KPDX 201953Z 27005KT 10SM -RA FEW030 SCT050 BKN070 16/10 A3015 RMK AO2 RAB04 SLP208 P0003 T01610100
KPDX 202053Z VRB03KT 10SM FEW035 BKN055 BKN080 19/09 A3014 RMK AO2 RAE01 SLP204 P0000 60003 T01890094 58010



Page loaded:  21:16 UTC  |   02:16 PM Pacific  |   03:16 PM Mountain  |   04:16 PM Central  |   05:16 PM Eastern

 

ADVISORIES

FORECASTS

FORECASTS

OBSERVATIONS

USER TOOLS

ABOUT US